Time;durP1;ratioP1;P1;durP2;ratioP2;P2;SDS_P1;SDS_P2;PMS_P1;PMS_P2;Temp;Humidity;BMP_temperature;BMP_pressure;BME280_temperature;BME280_humidity;BME280_pressure;Samples;Min_cycle;Max_cycle;Signal;HPM_P1;HPM_P2
2023/06/27 00:00:12;;;;;;;10.63;3.42;;;;;;;;;;5033027;28;99286;-72
2023/06/27 00:02:42;;;;;;;11.32;3.85;;;;;;;;;;5029754;28;98626;-72
2023/06/27 00:05:09;;;;;;;;;;;;;;;;;;5030445;28;99484;-72
2023/06/27 00:07:35;;;;;;;9.45;3.15;;;;;;;;;;5031045;27;129996;-72
2023/06/27 00:10:02;;;;;;;10.95;3.30;;;;;;;;;;5029857;28;98510;-72
2023/06/27 00:12:30;;;;;;;6.63;2.55;;;;;;;;;;5029808;28;99176;-72
2023/06/27 00:14:57;;;;;;;5.63;3.10;;;;;;;;;;5028554;28;100295;-72
2023/06/27 00:17:24;;;;;;;11.02;3.17;;;;;;;;;;5030153;28;98819;-72
2023/06/27 00:19:57;;;;;;;6.75;3.60;;;;;;;;;;5032587;28;99329;-72
2023/06/27 00:22:26;;;;;;;15.63;3.13;;;;;;;;;;5029774;28;98527;-72
2023/06/27 00:24:53;;;;;;;9.80;3.42;;;;;;;;;;5029125;28;99741;-72
2023/06/27 00:27:20;;;;;;;8.00;3.13;;;;;;;;;;5029549;28;100855;-72
2023/06/27 00:29:47;;;;;;;9.75;3.38;;;;;;;;;;5029298;28;98546;-72
2023/06/27 00:32:13;;;;;;;8.52;3.33;;;;;;;;;;5029642;27;99324;-72
2023/06/27 00:34:39;;;;;;;8.85;3.50;;;;;;;;;;5029545;28;100619;-72
2023/06/27 00:37:05;;;;;;;11.68;3.33;;;;;;;;;;5029590;28;98537;-72
2023/06/27 00:39:32;;;;;;;8.05;2.88;;;;;;;;;;5029136;28;99564;-72
2023/06/27 00:41:58;;;;;;;11.32;3.28;;;;;;;;;;5032853;28;100591;-72
2023/06/27 00:44:25;;;;;;;8.70;3.50;;;;;;;;;;5029610;28;100311;-72
2023/06/27 00:46:51;;;;;;;6.22;3.00;;;;;;;;;;5028712;28;99668;-72
2023/06/27 00:49:18;;;;;;;12.57;3.50;;;;;;;;;;5029367;28;98541;-72
2023/06/27 00:51:48;;;;;;;11.93;3.50;;;;;;;;;;5029610;28;100296;-72
2023/06/27 00:54:16;;;;;;;6.78;2.85;;;;;;;;;;5028976;28;99489;-72
2023/06/27 00:56:42;;;;;;;8.40;3.35;;;;;;;;;;5029636;28;97771;-73
2023/06/27 00:59:09;;;;;;;8.98;3.55;;;;;;;;;;5011576;28;98693;-73
2023/06/27 01:01:36;;;;;;;13.25;3.38;;;;;;;;;;5028588;28;98537;-73
2023/06/27 01:04:03;;;;;;;10.35;3.08;;;;;;;;;;5034602;28;99287;-73
2023/06/27 01:06:43;;;;;;;10.10;3.17;;;;;;;;;;5032753;28;101662;-73
2023/06/27 01:09:12;;;;;;;13.17;3.73;;;;;;;;;;5032714;28;98696;-72
2023/06/27 01:11:44;;;;;;;9.10;3.03;;;;;;;;;;5032473;27;99293;-73
2023/06/27 01:14:12;;;;;;;8.82;3.10;;;;;;;;;;5031959;28;99698;-72
2023/06/27 01:16:39;;;;;;;6.30;2.85;;;;;;;;;;5032486;28;98540;-73
2023/06/27 01:19:08;;;;;;;11.80;3.05;;;;;;;;;;5032412;28;99067;-73
2023/06/27 01:21:36;;;;;;;12.07;3.67;;;;;;;;;;5032642;27;99182;-73
2023/06/27 01:24:02;;;;;;;10.48;3.30;;;;;;;;;;5032478;27;98503;-72
2023/06/27 01:26:30;;;;;;;6.80;3.05;;;;;;;;;;5035173;27;99422;-72
2023/06/27 01:28:56;;;;;;;12.05;3.40;;;;;;;;;;5031206;27;99298;-72
2023/06/27 01:31:26;;;;;;;10.52;3.22;;;;;;;;;;5032162;28;99963;-72
2023/06/27 01:33:59;;;;;;;9.20;3.60;;;;;;;;;;5031642;28;99667;-72
2023/06/27 01:36:35;;;;;;;15.05;3.58;;;;;;;;;;5032312;28;98497;-72
2023/06/27 01:39:07;;;;;;;10.98;3.25;;;;;;;;;;5014991;28;100263;-72
2023/06/27 01:41:36;;;;;;;9.82;3.63;;;;;;;;;;5031675;28;99497;-72
2023/06/27 01:44:03;;;;;;;12.60;3.13;;;;;;;;;;5031897;28;98589;-72
2023/06/27 01:46:30;;;;;;;14.68;3.50;;;;;;;;;;5032376;28;99109;-72
2023/06/27 01:48:58;;;;;;;9.55;2.92;;;;;;;;;;5034917;28;99508;-72
2023/06/27 01:51:24;;;;;;;14.48;3.63;;;;;;;;;;5031885;27;99689;-72
2023/06/27 01:53:51;;;;;;;11.85;3.33;;;;;;;;;;5030693;27;100273;-72
2023/06/27 01:56:17;;;;;;;10.55;3.65;;;;;;;;;;5031966;28;98577;-72
2023/06/27 01:58:43;;;;;;;7.78;3.25;;;;;;;;;;5031946;27;99289;-72
2023/06/27 02:01:10;;;;;;;8.35;3.10;;;;;;;;;;5031346;27;99565;-72
2023/06/27 02:03:37;;;;;;;21.30;3.53;;;;;;;;;;5031835;28;98511;-72
2023/06/27 02:06:03;;;;;;;14.85;3.85;;;;;;;;;;5031556;27;99077;-72
2023/06/27 02:08:29;;;;;;;15.73;3.75;;;;;;;;;;5031153;28;99535;-72
2023/06/27 02:10:56;;;;;;;16.90;4.00;;;;;;;;;;5035522;28;97822;-72
2023/06/27 02:13:22;;;;;;;14.65;3.45;;;;;;;;;;5031027;28;99515;-72
2023/06/27 02:15:48;;;;;;;20.63;4.45;;;;;;;;;;5030629;27;98666;-72
2023/06/27 02:18:15;;;;;;;14.70;3.92;;;;;;;;;;5031213;27;100321;-72
2023/06/27 02:20:41;;;;;;;19.90;3.67;;;;;;;;;;5031011;27;99563;-72
2023/06/27 02:23:07;;;;;;;15.32;3.78;;;;;;;;;;5031281;27;98532;-72
2023/06/27 02:25:34;;;;;;;14.52;4.18;;;;;;;;;;5031438;28;99247;-72
2023/06/27 02:28:00;;;;;;;14.40;3.60;;;;;;;;;;5030872;28;100606;-72
2023/06/27 02:30:26;;;;;;;13.80;3.95;;;;;;;;;;5035057;28;98540;-72
2023/06/27 02:32:53;;;;;;;18.27;4.07;;;;;;;;;;5030251;28;99550;-72
2023/06/27 02:35:19;;;;;;;16.52;4.55;;;;;;;;;;5031857;28;98111;-72
2023/06/27 02:37:46;;;;;;;14.55;3.65;;;;;;;;;;5031567;28;99569;-72
2023/06/27 02:40:12;;;;;;;14.73;4.13;;;;;;;;;;5031036;28;100893;-71
2023/06/27 02:42:38;;;;;;;15.35;4.00;;;;;;;;;;5030509;28;99237;-72
2023/06/27 02:45:05;;;;;;;21.30;4.25;;;;;;;;;;5030712;28;99978;-72
2023/06/27 02:47:32;;;;;;;11.10;3.85;;;;;;;;;;5030542;28;100532;-72
2023/06/27 02:49:58;;;;;;;15.65;4.07;;;;;;;;;;5031469;28;98483;-72
2023/06/27 02:52:24;;;;;;;10.70;4.20;;;;;;;;;;5033881;28;99150;-72
2023/06/27 02:54:52;;;;;;;18.27;4.20;;;;;;;;;;5031128;28;98494;-72
2023/06/27 02:57:18;;;;;;;10.52;3.42;;;;;;;;;;5030998;28;99345;-72
2023/06/27 02:59:44;;;;;;;15.30;4.13;;;;;;;;;;5031286;28;98826;-72
2023/06/27 03:02:11;;;;;;;9.93;3.45;;;;;;;;;;5030240;28;98542;-72
2023/06/27 03:04:38;;;;;;;17.27;3.97;;;;;;;;;;5030840;28;99909;-71
2023/06/27 03:07:05;;;;;;;15.68;4.03;;;;;;;;;;5030142;28;101159;-72
2023/06/27 03:09:32;;;;;;;23.30;4.88;;;;;;;;;;5031108;28;98586;-72
2023/06/27 03:11:59;;;;;;;12.90;4.25;;;;;;;;;;5030804;28;98456;-72
2023/06/27 03:14:25;;;;;;;20.33;4.22;;;;;;;;;;5033768;28;99498;-72
2023/06/27 03:16:54;;;;;;;15.90;4.32;;;;;;;;;;5030500;27;99267;-71
2023/06/27 03:19:20;;;;;;;20.05;5.38;;;;;;;;;;5030530;28;100625;-72
2023/06/27 03:22:07;;;;;;;18.27;4.63;;;;;;;;;;5030431;28;98585;-72
2023/06/27 03:24:33;;;;;;;21.13;5.22;;;;;;;;;;5030660;27;99246;-72
2023/06/27 03:26:59;;;;;;;15.10;4.82;;;;;;;;;;5030071;28;100523;-72
2023/06/27 03:29:26;;;;;;;19.33;5.05;;;;;;;;;;5029731;28;98662;-72
2023/06/27 03:31:52;;;;;;;21.80;4.97;;;;;;;;;;5029646;28;99236;-72
2023/06/27 03:34:18;;;;;;;17.50;4.20;;;;;;;;;;5030234;28;100206;-72
2023/06/27 03:36:45;;;;;;;12.60;4.18;;;;;;;;;;5033590;28;98656;-72
2023/06/27 03:39:11;;;;;;;18.20;4.50;;;;;;;;;;5030064;28;100566;-72
2023/06/27 03:41:38;;;;;;;21.10;5.22;;;;;;;;;;5029516;28;98580;-72
2023/06/27 03:44:05;;;;;;;15.25;4.07;;;;;;;;;;5029790;28;99876;-72
2023/06/27 03:46:32;;;;;;;12.85;4.05;;;;;;;;;;5029172;28;99438;-72
2023/06/27 03:48:58;;;;;;;12.68;3.95;;;;;;;;;;5030787;28;97760;-72
2023/06/27 03:51:26;;;;;;;21.73;4.72;;;;;;;;;;5029801;28;98506;-72
2023/06/27 03:53:52;;;;;;;23.20;5.20;;;;;;;;;;5029578;28;98828;-72
2023/06/27 03:56:19;;;;;;;25.52;5.90;;;;;;;;;;5029232;28;99278;-72
2023/06/27 03:58:45;;;;;;;19.63;4.95;;;;;;;;;;5032771;28;99999;-72
2023/06/27 04:01:11;;;;;;;19.38;4.95;;;;;;;;;;5029796;28;98781;-72
2023/06/27 04:03:38;;;;;;;17.70;5.50;;;;;;;;;;5030017;28;98985;-72
2023/06/27 04:06:04;;;;;;;19.17;4.68;;;;;;;;;;5029612;28;99578;-72
2023/06/27 04:08:31;;;;;;;18.50;4.68;;;;;;;;;;5030146;28;98863;-74
2023/06/27 04:10:57;;;;;;;17.10;5.30;;;;;;;;;;5029351;28;99412;-72
2023/06/27 04:13:24;;;;;;;18.85;5.28;;;;;;;;;;5029219;27;98850;-72
2023/06/27 04:15:50;;;;;;;24.05;5.38;;;;;;;;;;5030017;27;98586;-72
2023/06/27 04:18:16;;;;;;;19.50;4.95;;;;;;;;;;5032580;28;99755;-73
2023/06/27 04:20:43;;;;;;;18.40;5.40;;;;;;;;;;5029430;28;99251;-72
2023/06/27 04:23:09;;;;;;;21.83;5.95;;;;;;;;;;5029894;28;101068;-72
2023/06/27 04:25:36;;;;;;;19.67;5.30;;;;;;;;;;5029006;28;99649;-72
2023/06/27 04:28:03;;;;;;;18.13;4.63;;;;;;;;;;5029352;28;98568;-72
2023/06/27 04:30:29;;;;;;;18.70;4.38;;;;;;;;;;5029659;27;99406;-72
2023/06/27 04:32:55;;;;;;;24.98;5.28;;;;;;;;;;5028779;28;99570;-72
2023/06/27 04:35:23;;;;;;;21.40;5.10;;;;;;;;;;5029093;28;98526;-72
2023/06/27 04:37:51;;;;;;;20.95;5.13;;;;;;;;;;5031057;28;100270;-72
2023/06/27 04:40:18;;;;;;;19.50;4.75;;;;;;;;;;5035425;28;99510;-72
2023/06/27 04:42:45;;;;;;;20.33;5.03;;;;;;;;;;5032717;27;99259;-72
2023/06/27 04:45:11;;;;;;;19.73;5.38;;;;;;;;;;5031664;28;100286;-72
2023/06/27 04:47:38;;;;;;;19.83;5.20;;;;;;;;;;5032226;27;98556;-72
2023/06/27 04:50:05;;;;;;;27.13;5.07;;;;;;;;;;5032954;28;99209;-72
2023/06/27 04:52:31;;;;;;;27.48;5.35;;;;;;;;;;5032063;27;100125;-72
2023/06/27 04:54:58;;;;;;;14.63;4.60;;;;;;;;;;5032848;27;98557;-72
2023/06/27 04:57:25;;;;;;;23.10;4.75;;;;;;;;;;5032609;27;99063;-72
2023/06/27 04:59:51;;;;;;;24.02;5.15;;;;;;;;;;5032161;27;99894;-72
2023/06/27 05:02:17;;;;;;;24.88;6.35;;;;;;;;;;5036284;28;97726;-73
2023/06/27 05:04:44;;;;;;;25.65;5.10;;;;;;;;;;5032123;28;99576;-72
2023/06/27 05:07:11;;;;;;;20.02;5.18;;;;;;;;;;5032492;27;98510;-72
2023/06/27 05:09:37;;;;;;;33.63;5.97;;;;;;;;;;5031643;27;99422;-72
2023/06/27 05:12:04;;;;;;;21.63;5.55;;;;;;;;;;5032229;28;99938;-73
2023/06/27 05:14:30;;;;;;;29.67;6.22;;;;;;;;;;5032162;28;98601;-71
2023/06/27 05:16:56;;;;;;;18.75;5.25;;;;;;;;;;5032658;28;100316;-71
2023/06/27 05:19:23;;;;;;;20.40;5.80;;;;;;;;;;5031831;27;99586;-73
2023/06/27 05:21:49;;;;;;;24.65;5.63;;;;;;;;;;5032917;28;98457;-71
2023/06/27 05:24:15;;;;;;;21.73;5.95;;;;;;;;;;5034866;27;99267;-72
2023/06/27 05:26:42;;;;;;;25.58;6.35;;;;;;;;;;5032555;28;97770;-71
2023/06/27 05:29:08;;;;;;;19.17;5.35;;;;;;;;;;5032169;27;99845;-73
2023/06/27 05:31:35;;;;;;;17.85;5.65;;;;;;;;;;5031877;28;99777;-73
2023/06/27 05:34:01;;;;;;;21.08;6.38;;;;;;;;;;5013687;28;99249;-71
2023/06/27 05:36:27;;;;;;;19.65;6.13;;;;;;;;;;5031926;28;100170;-71
2023/06/27 05:38:54;;;;;;;19.45;5.50;;;;;;;;;;5031485;28;99576;-70
2023/06/27 05:41:20;;;;;;;24.35;5.70;;;;;;;;;;5014340;28;98622;-71
2023/06/27 05:43:46;;;;;;;26.85;5.93;;;;;;;;;;5031962;28;99403;-73
2023/06/27 05:46:13;;;;;;;23.98;5.78;;;;;;;;;;5034899;27;100550;-71
2023/06/27 05:48:39;;;;;;;22.58;5.25;;;;;;;;;;5031863;27;100598;-70
2023/06/27 05:51:06;;;;;;;14.55;5.15;;;;;;;;;;5031329;28;99295;-73
2023/06/27 05:53:33;;;;;;;22.58;6.00;;;;;;;;;;5031966;28;98492;-71
2023/06/27 05:55:59;;;;;;;31.30;5.75;;;;;;;;;;5031878;27;99679;-71
2023/06/27 05:58:26;;;;;;;13.80;5.43;;;;;;;;;;5013192;28;101627;-71
2023/06/27 06:00:54;;;;;;;25.55;5.85;;;;;;;;;;5032008;28;98467;-71
2023/06/27 06:03:21;;;;;;;17.95;5.25;;;;;;;;;;5031361;27;100030;-71
2023/06/27 06:05:48;;;;;;;17.70;4.95;;;;;;;;;;5013641;28;100515;-71
2023/06/27 06:08:14;;;;;;;21.20;5.00;;;;;;;;;;5035114;27;98625;-71
2023/06/27 06:10:41;;;;;;;18.70;4.80;;;;;;;;;;5013281;28;99472;-71
2023/06/27 06:13:07;;;;;;;22.88;4.55;;;;;;;;;;5031406;28;98521;-71
2023/06/27 06:15:33;;;;;;;21.75;5.20;;;;;;;;;;5032314;27;100276;-71
2023/06/27 06:18:00;;;;;;;17.98;4.68;;;;;;;;;;5030818;27;98525;-71
2023/06/27 06:20:29;;;;;;;21.85;4.45;;;;;;;;;;5031345;27;99072;-71
2023/06/27 06:22:55;;;;;;;20.40;4.10;;;;;;;;;;5013367;28;99822;-71
2023/06/27 06:25:21;;;;;;;14.65;3.97;;;;;;;;;;5030797;28;99986;-71
2023/06/27 06:27:48;;;;;;;14.13;3.95;;;;;;;;;;5034275;27;98566;-71
2023/06/27 06:30:14;;;;;;;13.52;3.80;;;;;;;;;;5030800;28;99725;-71
2023/06/27 06:32:41;;;;;;;11.75;2.85;;;;;;;;;;5031247;28;98541;-71
2023/06/27 06:35:07;;;;;;;17.92;3.75;;;;;;;;;;5030859;28;99253;-71
2023/06/27 06:37:33;;;;;;;9.75;2.92;;;;;;;;;;5030746;28;99546;-71
2023/06/27 06:40:00;;;;;;;9.27;3.50;;;;;;;;;;5031858;28;97779;-72
2023/06/27 06:42:26;;;;;;;9.43;2.40;;;;;;;;;;5031126;28;98634;-71
2023/06/27 06:44:53;;;;;;;8.82;2.80;;;;;;;;;;5029992;28;99628;-71
2023/06/27 06:47:19;;;;;;;16.40;3.47;;;;;;;;;;5012676;28;99317;-71
2023/06/27 06:49:45;;;;;;;20.45;2.88;;;;;;;;;;5033953;28;99929;-72
2023/06/27 06:52:12;;;;;;;12.63;2.85;;;;;;;;;;5030769;28;98523;-71
2023/06/27 06:54:38;;;;;;;12.50;2.65;;;;;;;;;;5030814;27;99444;-71
2023/06/27 06:57:06;;;;;;;16.83;3.22;;;;;;;;;;5012673;28;99747;-71
2023/06/27 06:59:32;;;;;;;8.10;2.17;;;;;;;;;;5030594;28;98832;-71
2023/06/27 07:01:59;;;;;;;8.05;1.77;;;;;;;;;;5030963;27;99797;-71
2023/06/27 07:04:25;;;;;;;6.60;1.88;;;;;;;;;;5030657;28;99227;-72
2023/06/27 07:06:51;;;;;;;11.05;2.15;;;;;;;;;;5030731;27;98583;-71
2023/06/27 07:09:18;;;;;;;12.45;2.05;;;;;;;;;;5030764;28;100497;-72
2023/06/27 07:11:44;;;;;;;5.82;1.63;;;;;;;;;;5033145;28;100249;-72
2023/06/27 07:14:12;;;;;;;8.45;1.95;;;;;;;;;;5030264;27;100027;-72
2023/06/27 07:16:38;;;;;;;7.63;1.50;;;;;;;;;;5029934;28;100077;-72
2023/06/27 07:19:06;;;;;;;4.63;1.40;;;;;;;;;;5030275;28;98575;-72
2023/06/27 07:21:33;;;;;;;8.23;2.20;;;;;;;;;;5030217;28;99209;-72
2023/06/27 07:23:59;;;;;;;5.35;1.45;;;;;;;;;;5029902;28;99742;-72
2023/06/27 07:26:26;;;;;;;5.93;1.85;;;;;;;;;;5030383;28;98498;-74
2023/06/27 07:28:52;;;;;;;8.25;1.70;;;;;;;;;;5030312;28;99197;-73
2023/06/27 07:31:18;;;;;;;5.53;1.40;;;;;;;;;;5011902;28;99566;-73
2023/06/27 07:33:45;;;;;;;5.00;1.52;;;;;;;;;;5033711;27;98539;-73
2023/06/27 07:36:11;;;;;;;7.50;1.77;;;;;;;;;;5028995;28;100284;-73
2023/06/27 07:38:38;;;;;;;11.10;2.08;;;;;;;;;;5030426;28;98796;-73
2023/06/27 07:41:04;;;;;;;5.10;1.40;;;;;;;;;;5030347;28;100563;-72
2023/06/27 07:43:31;;;;;;;5.72;1.48;;;;;;;;;;5029795;28;99486;-74
2023/06/27 07:45:57;;;;;;;2.38;1.30;;;;;;;;;;5029522;28;98789;-72
2023/06/27 07:48:23;;;;;;;14.57;1.50;;;;;;;;;;5029978;28;98890;-74
2023/06/27 07:50:50;;;;;;;6.65;1.45;;;;;;;;;;5029540;28;99608;-74
2023/06/27 07:53:16;;;;;;;4.78;1.13;;;;;;;;;;5030689;27;97990;-74
2023/06/27 07:55:43;;;;;;;5.43;1.30;;;;;;;;;;5032530;27;98742;-74
2023/06/27 07:58:09;;;;;;;6.38;1.30;;;;;;;;;;5030243;28;98855;-74
2023/06/27 08:00:35;;;;;;;3.38;1.25;;;;;;;;;;5029801;28;100330;-73
2023/06/27 08:03:02;;;;;;;9.50;1.63;;;;;;;;;;5029667;28;100550;-74
2023/06/27 08:05:31;;;;;;;7.28;1.60;;;;;;;;;;5030185;28;98546;-73
2023/06/27 08:07:58;;;;;;;5.90;1.40;;;;;;;;;;5029524;28;99212;-74
2023/06/27 08:10:25;;;;;;;11.18;1.58;;;;;;;;;;5029002;27;99677;-74
2023/06/27 08:12:52;;;;;;;5.47;1.15;;;;;;;;;;5030457;27;98785;-73
2023/06/27 08:15:19;;;;;;;9.63;2.35;;;;;;;;;;5033506;27;100508;-73
2023/06/27 08:17:45;;;;;;;6.85;1.65;;;;;;;;;;5036649;27;98770;-73
2023/06/27 08:20:12;;;;;;;7.75;1.70;;;;;;;;;;5033172;27;98544;-73
2023/06/27 08:22:38;;;;;;;6.55;1.42;;;;;;;;;;5032920;28;99577;-73
2023/06/27 08:25:06;;;;;;;6.05;1.15;;;;;;;;;;5032393;28;99297;-73
2023/06/27 08:27:32;;;;;;;8.57;1.75;;;;;;;;;;5015322;28;100906;-73
2023/06/27 08:29:59;;;;;;;6.03;1.23;;;;;;;;;;5032644;28;99705;-73
2023/06/27 08:32:25;;;;;;;4.10;1.33;;;;;;;;;;5033237;28;98462;-73
2023/06/27 08:34:51;;;;;;;3.20;1.30;;;;;;;;;;5033075;28;99483;-73
2023/06/27 08:37:18;;;;;;;4.60;1.30;;;;;;;;;;5036228;28;100618;-73
2023/06/27 08:39:51;;;;;;;6.63;1.13;;;;;;;;;;5032847;28;99387;-73
2023/06/27 08:42:18;;;;;;;4.15;1.02;;;;;;;;;;5032942;28;99425;-73
2023/06/27 08:44:44;;;;;;;10.43;1.65;;;;;;;;;;5032702;28;98668;-73
2023/06/27 08:47:12;;;;;;;2.72;1.15;;;;;;;;;;5033183;28;100590;-73
2023/06/27 08:49:40;;;;;;;6.32;1.42;;;;;;;;;;5031779;28;100886;-73
2023/06/27 08:52:11;;;;;;;8.55;1.45;;;;;;;;;;5032144;27;98783;-73
2023/06/27 08:54:39;;;;;;;3.13;1.02;;;;;;;;;;5032637;28;99496;-73
2023/06/27 08:57:05;;;;;;;6.70;1.40;;;;;;;;;;5032258;28;99846;-73
2023/06/27 08:59:36;;;;;;;4.57;1.40;;;;;;;;;;5036113;28;98776;-73
2023/06/27 09:02:04;;;;;;;6.70;1.58;;;;;;;;;;5031905;28;99775;-73
2023/06/27 09:04:32;;;;;;;9.20;1.70;;;;;;;;;;5032486;28;98698;-73
2023/06/27 09:07:00;;;;;;;6.30;1.40;;;;;;;;;;5033128;28;99287;-73
2023/06/27 09:09:28;;;;;;;4.13;1.13;;;;;;;;;;5032178;27;99485;-73
2023/06/27 09:11:54;;;;;;;8.52;1.42;;;;;;;;;;5032820;28;98460;-73
2023/06/27 09:14:21;;;;;;;6.25;0.90;;;;;;;;;;5032325;28;100207;-73
2023/06/27 09:16:47;;;;;;;3.95;1.13;;;;;;;;;;5031993;28;99554;-73
2023/06/27 09:19:14;;;;;;;3.53;1.40;;;;;;;;;;5032109;28;98533;-73
2023/06/27 09:21:42;;;;;;;2.20;0.98;;;;;;;;;;5035625;27;99375;-73
2023/06/27 09:24:12;;;;;;;4.20;1.10;;;;;;;;;;5032144;27;98512;-73
2023/06/27 09:26:38;;;;;;;7.70;1.30;;;;;;;;;;5032261;28;99204;-73
2023/06/27 09:29:05;;;;;;;6.30;1.10;;;;;;;;;;5031527;27;99550;-73
2023/06/27 09:31:32;;;;;;;8.18;1.20;;;;;;;;;;5033102;28;97732;-73
2023/06/27 09:34:11;;;;;;;7.93;1.55;;;;;;;;;;5032255;27;98706;-73
2023/06/27 09:36:38;;;;;;;5.05;1.10;;;;;;;;;;5031679;28;99687;-73
2023/06/27 09:39:11;;;;;;;6.55;1.50;;;;;;;;;;5032279;27;99167;-73
2023/06/27 09:41:47;;;;;;;4.40;1.40;;;;;;;;;;5032284;28;101104;-73
2023/06/27 09:44:15;;;;;;;4.97;1.13;;;;;;;;;;5034268;27;99627;-73
2023/06/27 09:46:42;;;;;;;4.88;1.10;;;;;;;;;;5031738;28;99355;-73
2023/06/27 09:49:09;;;;;;;8.63;1.20;;;;;;;;;;5031449;28;100040;-73
2023/06/27 09:51:35;;;;;;;8.52;1.17;;;;;;;;;;5032006;27;98639;-73
2023/06/27 09:54:02;;;;;;;5.93;1.15;;;;;;;;;;5032304;28;100164;-73
2023/06/27 09:56:30;;;;;;;6.35;1.23;;;;;;;;;;5032168;28;99002;-73
2023/06/27 09:58:57;;;;;;;10.77;1.58;;;;;;;;;;5030557;27;98625;-73
2023/06/27 10:01:32;;;;;;;2.97;1.00;;;;;;;;;;5031530;28;99471;-73
2023/06/27 10:03:58;;;;;;;4.05;1.30;;;;;;;;;;5030931;28;101623;-73
2023/06/27 10:06:25;;;;;;;9.40;1.20;;;;;;;;;;5034921;28;98534;-73
2023/06/27 10:08:51;;;;;;;5.15;1.58;;;;;;;;;;5031414;28;99591;-73
2023/06/27 10:11:18;;;;;;;3.67;1.20;;;;;;;;;;5031019;28;98683;-73
2023/06/27 10:13:44;;;;;;;6.68;1.17;;;;;;;;;;5031826;28;99113;-73
2023/06/27 10:16:11;;;;;;;5.18;1.20;;;;;;;;;;5030806;28;99584;-73
2023/06/27 10:18:38;;;;;;;3.90;1.35;;;;;;;;;;5031482;28;98834;-73
2023/06/27 10:21:04;;;;;;;5.53;1.27;;;;;;;;;;5032222;28;100218;-73
2023/06/27 10:23:31;;;;;;;7.18;1.65;;;;;;;;;;5030920;28;99613;-74
2023/06/27 10:25:58;;;;;;;6.18;1.60;;;;;;;;;;5031270;27;98512;-74
2023/06/27 10:28:25;;;;;;;7.68;1.20;;;;;;;;;;5033279;28;99540;-74
2023/06/27 10:30:51;;;;;;;3.42;1.40;;;;;;;;;;5031501;27;98639;-74
2023/06/27 10:33:19;;;;;;;5.93;1.30;;;;;;;;;;5030923;28;99170;-74
2023/06/27 10:35:54;;;;;;;10.35;1.13;;;;;;;;;;5029962;27;99750;-73
2023/06/27 10:38:21;;;;;;;7.57;1.52;;;;;;;;;;5031279;28;98554;-74
2023/06/27 10:40:57;;;;;;;4.65;1.38;;;;;;;;;;5031367;28;100257;-74
2023/06/27 10:43:37;;;;;;;9.25;1.33;;;;;;;;;;5030590;27;99369;-73
2023/06/27 10:46:04;;;;;;;6.50;1.33;;;;;;;;;;5031254;28;97796;-74
2023/06/27 10:48:32;;;;;;;6.90;1.48;;;;;;;;;;5033861;28;98479;-74
2023/06/27 10:51:07;;;;;;;6.00;1.25;;;;;;;;;;5030771;28;99247;-73
2023/06/27 10:53:34;;;;;;;5.85;1.48;;;;;;;;;;5030671;28;99239;-73
2023/06/27 10:56:13;;;;;;;6.10;1.05;;;;;;;;;;5030387;28;99499;-74
2023/06/27 10:58:44;;;;;;;8.50;1.70;;;;;;;;;;5030894;28;98493;-73
2023/06/27 11:01:12;;;;;;;1.77;0.75;;;;;;;;;;5030730;27;99503;-72
2023/06/27 11:03:40;;;;;;;10.98;1.42;;;;;;;;;;5029113;28;99705;-74
2023/06/27 11:06:07;;;;;;;4.90;1.25;;;;;;;;;;5031273;28;98439;-73
2023/06/27 11:08:34;;;;;;;4.55;1.08;;;;;;;;;;5030615;28;99240;-73
2023/06/27 11:11:05;;;;;;;5.53;1.25;;;;;;;;;;5033965;28;98795;-74
2023/06/27 11:13:44;;;;;;;4.68;1.20;;;;;;;;;;5030594;28;98654;-72
2023/06/27 11:16:12;;;;;;;8.23;1.27;;;;;;;;;;5029273;27;100561;-74
2023/06/27 11:18:39;;;;;;;8.70;1.45;;;;;;;;;;5029760;28;99281;-73
2023/06/27 11:21:05;;;;;;;4.35;1.05;;;;;;;;;;5030556;28;100043;-73
2023/06/27 11:23:33;;;;;;;8.63;1.63;;;;;;;;;;5029889;28;99485;-74
2023/06/27 11:26:00;;;;;;;4.43;1.17;;;;;;;;;;5030443;28;98538;-74
2023/06/27 11:28:26;;;;;;;5.65;1.40;;;;;;;;;;5029545;27;99217;-73
2023/06/27 11:30:59;;;;;;;3.42;1.17;;;;;;;;;;5030126;27;100545;-74
2023/06/27 11:33:26;;;;;;;4.40;1.23;;;;;;;;;;5033665;28;98642;-75
2023/06/27 11:35:55;;;;;;;7.70;1.50;;;;;;;;;;5030093;28;98983;-72
2023/06/27 11:38:23;;;;;;;7.38;1.52;;;;;;;;;;5030599;27;98428;-72
2023/06/27 11:40:52;;;;;;;3.30;1.30;;;;;;;;;;5029706;28;99160;-72
2023/06/27 11:43:18;;;;;;;7.43;1.33;;;;;;;;;;5029505;28;100193;-72
2023/06/27 11:45:48;;;;;;;5.43;1.15;;;;;;;;;;5029702;28;98531;-73
2023/06/27 11:48:15;;;;;;;6.32;1.52;;;;;;;;;;5029266;28;100254;-73
2023/06/27 11:50:55;;;;;;;6.28;1.08;;;;;;;;;;5030181;28;98431;-73
2023/06/27 11:53:28;;;;;;;7.30;1.10;;;;;;;;;;5029789;28;98700;-73
2023/06/27 11:55:55;;;;;;;6.47;1.52;;;;;;;;;;5032939;28;99371;-73
2023/06/27 11:58:45;;;;;;;5.80;1.00;;;;;;;;;;5030395;28;99091;-72
2023/06/27 12:01:13;;;;;;;4.70;1.23;;;;;;;;;;5030410;28;99234;-73
2023/06/27 12:03:40;;;;;;;2.80;0.77;;;;;;;;;;5029889;28;100532;-73
2023/06/27 12:06:22;;;;;;;5.13;1.50;;;;;;;;;;5012208;28;98602;-72
2023/06/27 12:08:48;;;;;;;4.53;1.23;;;;;;;;;;5028080;28;99464;-74
2023/06/27 12:11:15;;;;;;;7.00;1.10;;;;;;;;;;5029274;28;99572;-73
2023/06/27 12:13:42;;;;;;;3.17;1.10;;;;;;;;;;5029740;28;98469;-73
2023/06/27 12:16:25;;;;;;;7.50;1.42;;;;;;;;;;5029562;27;99288;-73
2023/06/27 12:18:51;;;;;;;1.88;0.90;;;;;;;;;;5032557;28;99560;-73
2023/06/27 12:21:18;;;;;;;2.25;1.00;;;;;;;;;;5029652;28;99208;-73
2023/06/27 12:23:44;;;;;;;4.68;1.00;;;;;;;;;;5029054;28;99580;-73
2023/06/27 12:26:10;;;;;;;5.47;1.13;;;;;;;;;;5030230;28;97853;-73
2023/06/27 12:28:53;;;;;;;4.40;1.20;;;;;;;;;;5028774;28;98582;-74
2023/06/27 12:31:19;;;;;;;4.85;1.10;;;;;;;;;;5029942;27;99695;-73
2023/06/27 12:33:46;;;;;;;5.93;1.30;;;;;;;;;;5029326;27;99519;-74
2023/06/27 12:36:14;;;;;;;5.38;1.15;;;;;;;;;;5029778;28;99923;-73
2023/06/27 12:38:40;;;;;;;6.28;1.00;;;;;;;;;;5011389;28;99708;-73
2023/06/27 12:41:07;;;;;;;6.80;1.55;;;;;;;;;;5032735;28;98604;-73
2023/06/27 12:43:33;;;;;;;5.05;0.95;;;;;;;;;;5029091;27;100879;-73
2023/06/27 12:46:00;;;;;;;8.27;1.58;;;;;;;;;;5029275;28;98596;-73
2023/06/27 12:48:26;;;;;;;5.40;1.17;;;;;;;;;;5029770;28;100606;-73
2023/06/27 12:50:53;;;;;;;5.10;1.17;;;;;;;;;;5029156;28;98828;-73
2023/06/27 12:53:19;;;;;;;5.95;1.17;;;;;;;;;;5029355;28;98763;-73
2023/06/27 12:55:46;;;;;;;3.13;1.08;;;;;;;;;;5028709;28;99528;-73
2023/06/27 12:58:12;;;;;;;4.93;1.10;;;;;;;;;;5028212;28;100320;-73
2023/06/27 13:00:39;;;;;;;4.68;1.05;;;;;;;;;;5036375;28;98579;-73
2023/06/27 13:03:06;;;;;;;5.22;1.30;;;;;;;;;;5032061;28;99568;-73
2023/06/27 13:05:44;;;;;;;3.47;1.13;;;;;;;;;;5032766;28;98780;-73
2023/06/27 13:08:10;;;;;;;3.17;1.00;;;;;;;;;;5032795;28;98677;-73
2023/06/27 13:10:37;;;;;;;6.07;1.60;;;;;;;;;;5031840;28;99570;-73
2023/06/27 13:13:03;;;;;;;7.80;1.40;;;;;;;;;;5032768;27;98965;-73
2023/06/27 13:15:30;;;;;;;5.13;1.45;;;;;;;;;;5033316;27;100257;-73
2023/06/27 13:18:07;;;;;;;3.38;1.35;;;;;;;;;;5031920;28;100424;-73
2023/06/27 13:20:33;;;;;;;4.57;1.30;;;;;;;;;;5032585;28;98479;-73
2023/06/27 13:23:02;;;;;;;10.57;1.95;;;;;;;;;;5034871;27;99330;-73
2023/06/27 13:25:29;;;;;;;8.60;1.38;;;;;;;;;;5032135;28;98505;-74
2023/06/27 13:27:58;;;;;;;5.10;1.35;;;;;;;;;;5030736;27;99116;-74
2023/06/27 13:30:25;;;;;;;11.63;1.73;;;;;;;;;;5031864;28;100642;-74
2023/06/27 13:32:52;;;;;;;6.75;1.35;;;;;;;;;;5032281;27;98455;-74
2023/06/27 13:35:19;;;;;;;5.28;1.58;;;;;;;;;;5032115;28;99471;-74
2023/06/27 13:37:46;;;;;;;7.10;1.33;;;;;;;;;;5014116;28;99604;-74
2023/06/27 13:40:27;;;;;;;7.80;1.70;;;;;;;;;;5032945;28;97768;-74
2023/06/27 13:42:53;;;;;;;3.22;1.08;;;;;;;;;;5032055;28;98875;-74
2023/06/27 13:45:20;;;;;;;5.72;1.70;;;;;;;;;;5034683;27;99515;-74
2023/06/27 13:47:46;;;;;;;8.02;1.40;;;;;;;;;;5031242;28;99499;-74
2023/06/27 13:50:12;;;;;;;3.80;1.27;;;;;;;;;;5031744;27;102821;-74
2023/06/27 13:52:39;;;;;;;5.95;1.48;;;;;;;;;;5032076;28;98546;-74
2023/06/27 13:55:05;;;;;;;13.02;1.83;;;;;;;;;;5031669;28;99217;-74
2023/06/27 13:57:32;;;;;;;10.27;1.75;;;;;;;;;;5031169;28;99659;-74
2023/06/27 13:59:58;;;;;;;4.15;1.42;;;;;;;;;;5031961;28;98580;-74
2023/06/27 14:02:24;;;;;;;6.07;1.55;;;;;;;;;;5031652;28;99215;-74
2023/06/27 14:04:51;;;;;;;5.45;1.42;;;;;;;;;;5031416;27;98762;-74
2023/06/27 14:07:17;;;;;;;6.38;1.50;;;;;;;;;;5035224;28;98500;-75
2023/06/27 14:09:44;;;;;;;4.35;1.17;;;;;;;;;;5031188;27;100679;-74
2023/06/27 14:12:10;;;;;;;9.02;1.50;;;;;;;;;;5030442;28;99390;-74
2023/06/27 14:14:37;;;;;;;7.90;1.30;;;;;;;;;;5031121;28;99876;-74
2023/06/27 14:17:03;;;;;;;7.03;1.25;;;;;;;;;;5030516;27;99552;-74
2023/06/27 14:19:30;;;;;;;10.77;1.48;;;;;;;;;;5031662;27;98476;-74
2023/06/27 14:21:56;;;;;;;8.00;1.67;;;;;;;;;;5031608;28;99521;-74
2023/06/27 14:24:22;;;;;;;6.65;1.33;;;;;;;;;;5031054;28;99675;-74
2023/06/27 14:26:49;;;;;;;4.50;1.35;;;;;;;;;;5031560;28;98565;-74
2023/06/27 14:29:15;;;;;;;5.43;1.25;;;;;;;;;;5034680;27;100388;-74
2023/06/27 14:31:42;;;;;;;2.60;1.05;;;;;;;;;;5030946;27;98537;-74
2023/06/27 14:34:08;;;;;;;7.57;1.20;;;;;;;;;;5031252;27;99154;-74
2023/06/27 14:36:34;;;;;;;5.30;1.20;;;;;;;;;;5030153;28;100706;-74